Andacollo, Argentina
Current Conditions -  °F | °C
As of 8:00 AM on Friday 19 Dec 2014 (Local Time) from SCIC Reporting Station
Clear Clear  
Wind Chill: 57°   Ceiling: Unl
Heat Index: 57°   Visibility: 6mi
Dew Point: 45°   Wind: 3mph
Humidity: 63%   Direction: NA
Pressure: 29.94"   Gusts: NA
Location:  37.05°S, 70.07°W
Report Text: SCIC 191100Z AUTO VRB03KT 9999 NCD 14/07 Q1014
Loading
Personal Weather Stations






























Interactive Weather Map New forecast layout! Learn more

10-Day Weather Forecast

Advertisements
Track Severe Weather on mobile